sensor_id;sensor_type;location;lat;lon;timestamp;P1;durP1;ratioP1;P2;durP2;ratioP2
34828;SDS011;21042;47.620;12.188;2022-12-15T00:01:58;39.95;;;17.38;;
34828;SDS011;21042;47.620;12.188;2022-12-15T00:04:44;35.97;;;16.15;;
34828;SDS011;21042;47.620;12.188;2022-12-15T00:07:30;37.85;;;16.00;;
34828;SDS011;21042;47.620;12.188;2022-12-15T00:10:16;40.53;;;15.18;;
34828;SDS011;21042;47.620;12.188;2022-12-15T00:13:01;33.90;;;15.75;;
34828;SDS011;21042;47.620;12.188;2022-12-15T00:15:47;39.45;;;16.17;;
34828;SDS011;21042;47.620;12.188;2022-12-15T00:18:32;44.90;;;18.13;;
34828;SDS011;21042;47.620;12.188;2022-12-15T00:21:18;68.93;;;23.45;;
34828;SDS011;21042;47.620;12.188;2022-12-15T00:24:04;89.70;;;31.25;;
34828;SDS011;21042;47.620;12.188;2022-12-15T00:26:49;70.50;;;26.30;;
34828;SDS011;21042;47.620;12.188;2022-12-15T00:29:35;81.40;;;30.83;;
34828;SDS011;21042;47.620;12.188;2022-12-15T00:32:20;74.70;;;28.05;;
34828;SDS011;21042;47.620;12.188;2022-12-15T00:35:06;47.80;;;21.00;;
34828;SDS011;21042;47.620;12.188;2022-12-15T00:37:52;39.72;;;15.65;;
34828;SDS011;21042;47.620;12.188;2022-12-15T00:40:38;32.55;;;14.68;;
34828;SDS011;21042;47.620;12.188;2022-12-15T00:43:04;33.55;;;14.45;;
34828;SDS011;21042;47.620;12.188;2022-12-15T00:48:17;40.28;;;16.90;;
34828;SDS011;21042;47.620;12.188;2022-12-15T00:50:44;39.33;;;17.17;;
34828;SDS011;21042;47.620;12.188;2022-12-15T00:53:20;39.10;;;16.67;;
34828;SDS011;21042;47.620;12.188;2022-12-15T00:56:07;42.08;;;18.02;;
34828;SDS011;21042;47.620;12.188;2022-12-15T00:58:53;43.58;;;18.10;;
34828;SDS011;21042;47.620;12.188;2022-12-15T01:01:39;41.15;;;17.27;;
34828;SDS011;21042;47.620;12.188;2022-12-15T01:04:25;28.45;;;14.00;;
34828;SDS011;21042;47.620;12.188;2022-12-15T01:07:11;30.52;;;14.07;;
34828;SDS011;21042;47.620;12.188;2022-12-15T01:09:57;30.83;;;14.30;;
34828;SDS011;21042;47.620;12.188;2022-12-15T01:12:43;39.13;;;15.90;;
34828;SDS011;21042;47.620;12.188;2022-12-15T01:15:29;38.88;;;16.27;;
34828;SDS011;21042;47.620;12.188;2022-12-15T01:18:15;29.35;;;14.82;;
34828;SDS011;21042;47.620;12.188;2022-12-15T01:21:01;32.17;;;14.57;;
34828;SDS011;21042;47.620;12.188;2022-12-15T01:23:30;34.70;;;15.15;;
34828;SDS011;21042;47.620;12.188;2022-12-15T01:25:58;32.13;;;15.77;;
34828;SDS011;21042;47.620;12.188;2022-12-15T01:28:25;32.00;;;15.88;;
34828;SDS011;21042;47.620;12.188;2022-12-15T01:30:52;39.08;;;16.23;;
34828;SDS011;21042;47.620;12.188;2022-12-15T01:33:19;28.73;;;13.95;;
34828;SDS011;21042;47.620;12.188;2022-12-15T01:35:56;27.38;;;13.88;;
34828;SDS011;21042;47.620;12.188;2022-12-15T01:38:25;36.25;;;13.68;;
34828;SDS011;21042;47.620;12.188;2022-12-15T01:41:02;30.80;;;13.48;;
34828;SDS011;21042;47.620;12.188;2022-12-15T01:43:35;31.85;;;14.88;;
34828;SDS011;21042;47.620;12.188;2022-12-15T01:46:07;27.42;;;12.30;;
34828;SDS011;21042;47.620;12.188;2022-12-15T01:56:43;20.60;;;10.50;;
34828;SDS011;21042;47.620;12.188;2022-12-15T01:59:12;19.67;;;10.68;;
34828;SDS011;21042;47.620;12.188;2022-12-15T02:01:41;21.52;;;9.95;;
34828;SDS011;21042;47.620;12.188;2022-12-15T02:04:15;21.58;;;10.57;;
34828;SDS011;21042;47.620;12.188;2022-12-15T02:06:44;23.88;;;10.20;;
34828;SDS011;21042;47.620;12.188;2022-12-15T02:09:11;16.90;;;10.48;;
34828;SDS011;21042;47.620;12.188;2022-12-15T02:11:42;24.58;;;11.85;;
34828;SDS011;21042;47.620;12.188;2022-12-15T02:14:19;25.55;;;11.55;;
34828;SDS011;21042;47.620;12.188;2022-12-15T02:17:02;24.02;;;11.48;;
34828;SDS011;21042;47.620;12.188;2022-12-15T02:28:15;26.83;;;11.95;;
34828;SDS011;21042;47.620;12.188;2022-12-15T02:31:18;25.13;;;12.38;;
34828;SDS011;21042;47.620;12.188;2022-12-15T02:36:46;31.27;;;13.15;;
34828;SDS011;21042;47.620;12.188;2022-12-15T02:39:16;29.50;;;12.85;;
34828;SDS011;21042;47.620;12.188;2022-12-15T02:41:44;30.77;;;12.38;;
34828;SDS011;21042;47.620;12.188;2022-12-15T02:57:54;28.08;;;12.30;;
34828;SDS011;21042;47.620;12.188;2022-12-15T03:00:36;24.52;;;11.70;;
34828;SDS011;21042;47.620;12.188;2022-12-15T03:03:06;27.00;;;12.60;;
34828;SDS011;21042;47.620;12.188;2022-12-15T03:08:00;22.73;;;11.13;;
34828;SDS011;21042;47.620;12.188;2022-12-15T03:10:27;24.05;;;12.15;;
34828;SDS011;21042;47.620;12.188;2022-12-15T03:12:54;26.83;;;11.10;;
34828;SDS011;21042;47.620;12.188;2022-12-15T03:15:21;22.92;;;11.30;;
34828;SDS011;21042;47.620;12.188;2022-12-15T03:17:47;26.33;;;12.70;;
34828;SDS011;21042;47.620;12.188;2022-12-15T03:20:14;22.73;;;11.88;;
34828;SDS011;21042;47.620;12.188;2022-12-15T03:22:41;23.13;;;8.95;;
34828;SDS011;21042;47.620;12.188;2022-12-15T03:25:08;16.85;;;8.23;;
34828;SDS011;21042;47.620;12.188;2022-12-15T03:27:34;23.08;;;11.43;;
34828;SDS011;21042;47.620;12.188;2022-12-15T03:30:03;24.85;;;11.77;;
34828;SDS011;21042;47.620;12.188;2022-12-15T03:32:30;23.90;;;11.13;;
34828;SDS011;21042;47.620;12.188;2022-12-15T03:34:57;16.00;;;8.15;;
34828;SDS011;21042;47.620;12.188;2022-12-15T03:37:24;23.25;;;11.40;;
34828;SDS011;21042;47.620;12.188;2022-12-15T03:39:51;22.60;;;12.07;;
34828;SDS011;21042;47.620;12.188;2022-12-15T03:42:17;15.07;;;7.93;;
34828;SDS011;21042;47.620;12.188;2022-12-15T03:45:04;26.95;;;11.98;;
34828;SDS011;21042;47.620;12.188;2022-12-15T03:47:31;29.00;;;12.52;;
34828;SDS011;21042;47.620;12.188;2022-12-15T03:49:58;24.58;;;11.70;;
34828;SDS011;21042;47.620;12.188;2022-12-15T03:52:25;22.42;;;11.77;;
34828;SDS011;21042;47.620;12.188;2022-12-15T03:54:51;18.42;;;8.85;;
34828;SDS011;21042;47.620;12.188;2022-12-15T03:57:18;17.83;;;8.75;;
34828;SDS011;21042;47.620;12.188;2022-12-15T03:59:45;16.85;;;8.15;;
34828;SDS011;21042;47.620;12.188;2022-12-15T04:02:11;26.90;;;13.80;;
34828;SDS011;21042;47.620;12.188;2022-12-15T04:04:39;27.67;;;12.60;;
34828;SDS011;21042;47.620;12.188;2022-12-15T04:07:05;20.30;;;8.98;;
34828;SDS011;21042;47.620;12.188;2022-12-15T04:09:32;28.75;;;11.38;;
34828;SDS011;21042;47.620;12.188;2022-12-15T04:11:59;18.45;;;9.27;;
34828;SDS011;21042;47.620;12.188;2022-12-15T04:14:28;33.40;;;12.05;;
34828;SDS011;21042;47.620;12.188;2022-12-15T04:16:55;28.50;;;13.43;;
34828;SDS011;21042;47.620;12.188;2022-12-15T04:19:22;24.58;;;11.27;;
34828;SDS011;21042;47.620;12.188;2022-12-15T04:22:07;22.00;;;11.63;;
34828;SDS011;21042;47.620;12.188;2022-12-15T04:24:40;27.67;;;12.13;;
34828;SDS011;21042;47.620;12.188;2022-12-15T04:27:25;23.17;;;10.85;;
34828;SDS011;21042;47.620;12.188;2022-12-15T04:30:11;29.48;;;12.52;;
34828;SDS011;21042;47.620;12.188;2022-12-15T04:32:57;23.02;;;11.63;;
34828;SDS011;21042;47.620;12.188;2022-12-15T04:35:43;23.42;;;12.27;;
34828;SDS011;21042;47.620;12.188;2022-12-15T04:38:29;21.30;;;11.57;;
34828;SDS011;21042;47.620;12.188;2022-12-15T04:41:16;26.65;;;12.05;;
34828;SDS011;21042;47.620;12.188;2022-12-15T04:44:04;24.15;;;11.38;;
34828;SDS011;21042;47.620;12.188;2022-12-15T04:46:50;24.63;;;11.85;;
34828;SDS011;21042;47.620;12.188;2022-12-15T04:49:35;22.42;;;12.18;;
34828;SDS011;21042;47.620;12.188;2022-12-15T04:52:20;27.55;;;12.05;;
34828;SDS011;21042;47.620;12.188;2022-12-15T04:55:06;25.23;;;11.52;;
34828;SDS011;21042;47.620;12.188;2022-12-15T04:57:52;27.88;;;12.38;;
34828;SDS011;21042;47.620;12.188;2022-12-15T05:00:37;25.45;;;11.68;;
34828;SDS011;21042;47.620;12.188;2022-12-15T05:03:23;25.75;;;12.07;;
34828;SDS011;21042;47.620;12.188;2022-12-15T05:06:08;29.48;;;11.60;;
34828;SDS011;21042;47.620;12.188;2022-12-15T05:08:54;28.20;;;13.98;;
34828;SDS011;21042;47.620;12.188;2022-12-15T05:11:39;37.13;;;12.63;;
34828;SDS011;21042;47.620;12.188;2022-12-15T05:14:25;27.02;;;12.85;;
34828;SDS011;21042;47.620;12.188;2022-12-15T05:17:14;26.77;;;12.52;;
34828;SDS011;21042;47.620;12.188;2022-12-15T05:20:07;23.67;;;12.52;;
34828;SDS011;21042;47.620;12.188;2022-12-15T05:22:53;30.15;;;12.82;;
34828;SDS011;21042;47.620;12.188;2022-12-15T05:25:40;27.80;;;12.20;;
34828;SDS011;21042;47.620;12.188;2022-12-15T05:28:26;31.17;;;13.27;;
34828;SDS011;21042;47.620;12.188;2022-12-15T05:31:11;30.85;;;13.63;;
34828;SDS011;21042;47.620;12.188;2022-12-15T05:33:57;41.28;;;14.35;;
34828;SDS011;21042;47.620;12.188;2022-12-15T05:36:30;36.03;;;13.75;;
34828;SDS011;21042;47.620;12.188;2022-12-15T05:38:57;31.25;;;11.10;;
34828;SDS011;21042;47.620;12.188;2022-12-15T05:41:24;34.47;;;11.43;;
34828;SDS011;21042;47.620;12.188;2022-12-15T05:43:50;49.83;;;16.27;;
34828;SDS011;21042;47.620;12.188;2022-12-15T05:46:17;30.25;;;11.13;;
34828;SDS011;21042;47.620;12.188;2022-12-15T05:48:45;33.63;;;14.05;;
34828;SDS011;21042;47.620;12.188;2022-12-15T05:51:11;35.60;;;14.82;;
34828;SDS011;21042;47.620;12.188;2022-12-15T05:53:39;59.42;;;15.38;;
34828;SDS011;21042;47.620;12.188;2022-12-15T05:56:08;44.05;;;15.48;;
34828;SDS011;21042;47.620;12.188;2022-12-15T05:58:37;39.70;;;14.82;;
34828;SDS011;21042;47.620;12.188;2022-12-15T06:01:12;46.13;;;15.45;;
34828;SDS011;21042;47.620;12.188;2022-12-15T06:03:41;42.30;;;14.90;;
34828;SDS011;21042;47.620;12.188;2022-12-15T06:06:08;46.83;;;15.40;;
34828;SDS011;21042;47.620;12.188;2022-12-15T06:08:37;62.50;;;16.67;;
34828;SDS011;21042;47.620;12.188;2022-12-15T06:11:05;39.97;;;14.73;;
34828;SDS011;21042;47.620;12.188;2022-12-15T06:13:32;46.65;;;15.43;;
34828;SDS011;21042;47.620;12.188;2022-12-15T06:16:01;39.92;;;14.90;;
34828;SDS011;21042;47.620;12.188;2022-12-15T06:18:34;40.08;;;14.63;;
34828;SDS011;21042;47.620;12.188;2022-12-15T06:21:13;40.75;;;14.60;;
34828;SDS011;21042;47.620;12.188;2022-12-15T06:23:43;41.75;;;15.75;;
34828;SDS011;21042;47.620;12.188;2022-12-15T06:26:16;47.30;;;15.50;;
34828;SDS011;21042;47.620;12.188;2022-12-15T06:28:45;50.42;;;14.85;;
34828;SDS011;21042;47.620;12.188;2022-12-15T06:31:14;37.15;;;15.27;;
34828;SDS011;21042;47.620;12.188;2022-12-15T06:33:41;38.95;;;14.23;;
34828;SDS011;21042;47.620;12.188;2022-12-15T06:36:10;57.00;;;15.95;;
34828;SDS011;21042;47.620;12.188;2022-12-15T06:38:39;40.85;;;14.70;;
34828;SDS011;21042;47.620;12.188;2022-12-15T06:41:09;43.45;;;14.57;;
34828;SDS011;21042;47.620;12.188;2022-12-15T06:43:37;39.90;;;15.60;;
34828;SDS011;21042;47.620;12.188;2022-12-15T06:46:04;33.95;;;14.52;;
34828;SDS011;21042;47.620;12.188;2022-12-15T06:51:05;32.85;;;14.15;;
34828;SDS011;21042;47.620;12.188;2022-12-15T06:53:42;36.15;;;14.90;;
34828;SDS011;21042;47.620;12.188;2022-12-15T06:56:23;35.80;;;11.63;;
34828;SDS011;21042;47.620;12.188;2022-12-15T06:59:00;47.83;;;14.82;;
34828;SDS011;21042;47.620;12.188;2022-12-15T07:01:28;43.25;;;15.35;;
34828;SDS011;21042;47.620;12.188;2022-12-15T07:03:56;35.00;;;14.52;;
34828;SDS011;21042;47.620;12.188;2022-12-15T07:06:30;33.38;;;14.70;;
34828;SDS011;21042;47.620;12.188;2022-12-15T07:09:02;44.85;;;14.68;;
34828;SDS011;21042;47.620;12.188;2022-12-15T07:11:32;33.17;;;15.05;;
34828;SDS011;21042;47.620;12.188;2022-12-15T07:13:59;45.03;;;14.80;;
34828;SDS011;21042;47.620;12.188;2022-12-15T07:16:25;28.17;;;13.27;;
34828;SDS011;21042;47.620;12.188;2022-12-15T07:18:52;36.72;;;16.50;;
34828;SDS011;21042;47.620;12.188;2022-12-15T07:21:19;23.80;;;11.13;;
34828;SDS011;21042;47.620;12.188;2022-12-15T07:23:46;24.88;;;11.35;;
34828;SDS011;21042;47.620;12.188;2022-12-15T07:26:22;37.65;;;14.20;;
34828;SDS011;21042;47.620;12.188;2022-12-15T07:31:16;32.95;;;14.43;;
34828;SDS011;21042;47.620;12.188;2022-12-15T07:33:43;41.92;;;15.52;;
34828;SDS011;21042;47.620;12.188;2022-12-15T07:36:10;43.78;;;16.73;;
34828;SDS011;21042;47.620;12.188;2022-12-15T07:38:37;43.78;;;17.95;;
34828;SDS011;21042;47.620;12.188;2022-12-15T07:41:04;45.03;;;17.02;;
34828;SDS011;21042;47.620;12.188;2022-12-15T07:43:33;38.20;;;15.63;;
34828;SDS011;21042;47.620;12.188;2022-12-15T07:46:01;43.28;;;16.75;;
34828;SDS011;21042;47.620;12.188;2022-12-15T07:48:28;301.48;;;30.58;;
34828;SDS011;21042;47.620;12.188;2022-12-15T07:50:55;146.75;;;21.08;;
34828;SDS011;21042;47.620;12.188;2022-12-15T07:53:33;60.65;;;21.08;;
34828;SDS011;21042;47.620;12.188;2022-12-15T07:56:00;64.97;;;19.58;;
34828;SDS011;21042;47.620;12.188;2022-12-15T07:58:34;90.22;;;23.52;;
34828;SDS011;21042;47.620;12.188;2022-12-15T08:01:03;156.65;;;24.90;;
34828;SDS011;21042;47.620;12.188;2022-12-15T08:03:32;87.35;;;22.33;;
34828;SDS011;21042;47.620;12.188;2022-12-15T08:06:08;71.90;;;22.20;;
34828;SDS011;21042;47.620;12.188;2022-12-15T08:08:37;53.22;;;20.27;;
34828;SDS011;21042;47.620;12.188;2022-12-15T08:11:08;92.40;;;23.95;;
34828;SDS011;21042;47.620;12.188;2022-12-15T08:13:37;60.83;;;23.00;;
34828;SDS011;21042;47.620;12.188;2022-12-15T08:16:24;43.88;;;16.67;;
34828;SDS011;21042;47.620;12.188;2022-12-15T08:18:51;62.00;;;21.65;;
34828;SDS011;21042;47.620;12.188;2022-12-15T08:23:45;59.28;;;22.70;;
34828;SDS011;21042;47.620;12.188;2022-12-15T08:26:13;63.85;;;22.88;;
34828;SDS011;21042;47.620;12.188;2022-12-15T08:28:42;86.82;;;23.83;;
34828;SDS011;21042;47.620;12.188;2022-12-15T08:31:13;61.40;;;23.27;;
34828;SDS011;21042;47.620;12.188;2022-12-15T08:33:42;61.65;;;23.90;;
34828;SDS011;21042;47.620;12.188;2022-12-15T08:36:10;78.80;;;23.35;;
34828;SDS011;21042;47.620;12.188;2022-12-15T08:38:39;62.92;;;24.20;;
34828;SDS011;21042;47.620;12.188;2022-12-15T08:41:07;65.05;;;23.55;;
34828;SDS011;21042;47.620;12.188;2022-12-15T08:43:38;74.18;;;23.52;;
34828;SDS011;21042;47.620;12.188;2022-12-15T08:46:13;76.95;;;24.23;;
34828;SDS011;21042;47.620;12.188;2022-12-15T08:48:42;66.22;;;23.95;;
34828;SDS011;21042;47.620;12.188;2022-12-15T08:51:09;66.32;;;24.30;;
34828;SDS011;21042;47.620;12.188;2022-12-15T08:53:35;63.47;;;22.48;;
34828;SDS011;21042;47.620;12.188;2022-12-15T08:56:06;46.88;;;16.33;;
34828;SDS011;21042;47.620;12.188;2022-12-15T08:58:34;66.65;;;22.00;;
34828;SDS011;21042;47.620;12.188;2022-12-15T09:01:05;66.03;;;23.90;;
34828;SDS011;21042;47.620;12.188;2022-12-15T09:03:34;70.28;;;23.52;;
34828;SDS011;21042;47.620;12.188;2022-12-15T09:06:06;59.85;;;22.63;;
34828;SDS011;21042;47.620;12.188;2022-12-15T09:08:36;80.53;;;25.55;;
34828;SDS011;21042;47.620;12.188;2022-12-15T09:11:03;57.78;;;18.67;;
34828;SDS011;21042;47.620;12.188;2022-12-15T09:13:32;89.18;;;26.38;;
34828;SDS011;21042;47.620;12.188;2022-12-15T09:16:01;64.15;;;23.42;;
34828;SDS011;21042;47.620;12.188;2022-12-15T09:18:35;74.15;;;23.70;;
34828;SDS011;21042;47.620;12.188;2022-12-15T09:21:03;59.95;;;23.42;;
34828;SDS011;21042;47.620;12.188;2022-12-15T09:23:31;71.40;;;26.10;;
34828;SDS011;21042;47.620;12.188;2022-12-15T09:26:02;67.25;;;25.70;;
34828;SDS011;21042;47.620;12.188;2022-12-15T09:28:34;63.63;;;24.88;;
34828;SDS011;21042;47.620;12.188;2022-12-15T09:31:07;68.63;;;26.00;;
34828;SDS011;21042;47.620;12.188;2022-12-15T09:33:41;63.35;;;26.08;;
34828;SDS011;21042;47.620;12.188;2022-12-15T09:36:09;78.47;;;25.85;;
34828;SDS011;21042;47.620;12.188;2022-12-15T09:38:38;57.72;;;24.40;;
34828;SDS011;21042;47.620;12.188;2022-12-15T09:41:08;68.00;;;24.00;;
34828;SDS011;21042;47.620;12.188;2022-12-15T09:43:44;72.68;;;28.27;;
34828;SDS011;21042;47.620;12.188;2022-12-15T09:46:25;47.23;;;19.47;;
34828;SDS011;21042;47.620;12.188;2022-12-15T09:48:56;65.22;;;25.27;;
34828;SDS011;21042;47.620;12.188;2022-12-15T09:51:34;65.30;;;26.23;;
34828;SDS011;21042;47.620;12.188;2022-12-15T09:54:06;66.07;;;25.40;;
34828;SDS011;21042;47.620;12.188;2022-12-15T09:56:39;67.15;;;25.85;;
34828;SDS011;21042;47.620;12.188;2022-12-15T09:59:22;62.03;;;25.52;;
34828;SDS011;21042;47.620;12.188;2022-12-15T10:02:33;59.88;;;24.67;;
34828;SDS011;21042;47.620;12.188;2022-12-15T10:05:29;59.53;;;25.00;;
34828;SDS011;21042;47.620;12.188;2022-12-15T10:08:31;57.97;;;23.77;;
34828;SDS011;21042;47.620;12.188;2022-12-15T10:11:15;61.28;;;23.13;;
34828;SDS011;21042;47.620;12.188;2022-12-15T10:16:35;56.78;;;23.15;;
34828;SDS011;21042;47.620;12.188;2022-12-15T10:19:15;70.63;;;23.13;;
34828;SDS011;21042;47.620;12.188;2022-12-15T10:21:56;57.03;;;21.23;;
34828;SDS011;21042;47.620;12.188;2022-12-15T10:30:02;60.03;;;23.23;;
34828;SDS011;21042;47.620;12.188;2022-12-15T10:32:37;54.70;;;21.05;;
34828;SDS011;21042;47.620;12.188;2022-12-15T10:37:43;55.95;;;22.33;;
34828;SDS011;21042;47.620;12.188;2022-12-15T10:40:14;60.17;;;23.13;;
34828;SDS011;21042;47.620;12.188;2022-12-15T10:42:44;53.67;;;22.02;;
34828;SDS011;21042;47.620;12.188;2022-12-15T10:45:34;54.65;;;22.33;;
34828;SDS011;21042;47.620;12.188;2022-12-15T10:48:04;48.05;;;19.42;;
34828;SDS011;21042;47.620;12.188;2022-12-15T10:53:00;48.10;;;18.83;;
34828;SDS011;21042;47.620;12.188;2022-12-15T10:55:40;54.85;;;20.65;;
34828;SDS011;21042;47.620;12.188;2022-12-15T10:58:19;52.08;;;20.27;;
34828;SDS011;21042;47.620;12.188;2022-12-15T11:00:48;49.58;;;20.48;;
34828;SDS011;21042;47.620;12.188;2022-12-15T11:03:39;49.03;;;19.55;;
34828;SDS011;21042;47.620;12.188;2022-12-15T11:06:15;51.67;;;20.90;;
34828;SDS011;21042;47.620;12.188;2022-12-15T11:08:48;50.13;;;21.25;;
34828;SDS011;21042;47.620;12.188;2022-12-15T11:11:25;44.60;;;19.33;;
34828;SDS011;21042;47.620;12.188;2022-12-15T11:14:19;46.85;;;20.50;;
34828;SDS011;21042;47.620;12.188;2022-12-15T11:16:50;54.33;;;21.58;;
34828;SDS011;21042;47.620;12.188;2022-12-15T11:21:54;53.58;;;20.52;;
34828;SDS011;21042;47.620;12.188;2022-12-15T11:24:37;50.95;;;19.00;;
34828;SDS011;21042;47.620;12.188;2022-12-15T11:27:22;53.78;;;19.77;;
34828;SDS011;21042;47.620;12.188;2022-12-15T11:30:12;49.42;;;20.48;;
34828;SDS011;21042;47.620;12.188;2022-12-15T11:32:53;49.88;;;21.52;;
34828;SDS011;21042;47.620;12.188;2022-12-15T11:35:27;58.13;;;20.50;;
34828;SDS011;21042;47.620;12.188;2022-12-15T11:38:23;53.70;;;22.05;;
34828;SDS011;21042;47.620;12.188;2022-12-15T11:44:10;47.95;;;19.20;;
34828;SDS011;21042;47.620;12.188;2022-12-15T11:49:48;47.85;;;20.08;;
34828;SDS011;21042;47.620;12.188;2022-12-15T11:52:36;58.38;;;19.83;;
34828;SDS011;21042;47.620;12.188;2022-12-15T11:55:11;48.97;;;19.65;;
34828;SDS011;21042;47.620;12.188;2022-12-15T12:07:09;47.78;;;18.73;;
34828;SDS011;21042;47.620;12.188;2022-12-15T12:12:57;52.38;;;21.05;;
34828;SDS011;21042;47.620;12.188;2022-12-15T12:18:22;63.30;;;24.90;;
34828;SDS011;21042;47.620;12.188;2022-12-15T12:21:02;69.13;;;24.98;;
34828;SDS011;21042;47.620;12.188;2022-12-15T12:23:47;63.17;;;25.27;;
34828;SDS011;21042;47.620;12.188;2022-12-15T12:26:33;64.20;;;25.38;;
34828;SDS011;21042;47.620;12.188;2022-12-15T12:29:07;68.50;;;27.05;;
34828;SDS011;21042;47.620;12.188;2022-12-15T12:43:35;68.53;;;26.88;;
34828;SDS011;21042;47.620;12.188;2022-12-15T12:46:23;73.82;;;27.65;;
34828;SDS011;21042;47.620;12.188;2022-12-15T12:51:40;72.32;;;28.67;;
34828;SDS011;21042;47.620;12.188;2022-12-15T12:57:00;71.35;;;28.52;;
34828;SDS011;21042;47.620;12.188;2022-12-15T12:59:50;79.45;;;28.73;;
34828;SDS011;21042;47.620;12.188;2022-12-15T13:04:59;80.95;;;28.25;;
34828;SDS011;21042;47.620;12.188;2022-12-15T13:07:38;74.32;;;29.70;;
34828;SDS011;21042;47.620;12.188;2022-12-15T13:12:44;81.43;;;30.98;;
34828;SDS011;21042;47.620;12.188;2022-12-15T13:20:38;81.95;;;31.20;;
34828;SDS011;21042;47.620;12.188;2022-12-15T13:23:39;80.65;;;29.63;;
34828;SDS011;21042;47.620;12.188;2022-12-15T13:44:34;89.30;;;31.55;;
34828;SDS011;21042;47.620;12.188;2022-12-15T13:47:06;86.38;;;32.47;;
34828;SDS011;21042;47.620;12.188;2022-12-15T13:49:55;106.72;;;34.90;;
34828;SDS011;21042;47.620;12.188;2022-12-15T13:52:37;98.50;;;35.13;;
34828;SDS011;21042;47.620;12.188;2022-12-15T13:55:38;98.15;;;33.33;;
34828;SDS011;21042;47.620;12.188;2022-12-15T13:58:16;100.90;;;33.45;;
34828;SDS011;21042;47.620;12.188;2022-12-15T14:00:52;95.57;;;32.88;;
34828;SDS011;21042;47.620;12.188;2022-12-15T14:03:20;102.40;;;32.70;;
34828;SDS011;21042;47.620;12.188;2022-12-15T14:05:52;97.00;;;35.00;;
34828;SDS011;21042;47.620;12.188;2022-12-15T14:08:21;94.82;;;33.10;;
34828;SDS011;21042;47.620;12.188;2022-12-15T14:10:53;95.75;;;35.22;;
34828;SDS011;21042;47.620;12.188;2022-12-15T14:13:26;95.28;;;33.15;;
34828;SDS011;21042;47.620;12.188;2022-12-15T14:15:59;84.85;;;30.95;;
34828;SDS011;21042;47.620;12.188;2022-12-15T14:18:33;84.82;;;31.02;;
34828;SDS011;21042;47.620;12.188;2022-12-15T14:21:06;88.15;;;30.40;;
34828;SDS011;21042;47.620;12.188;2022-12-15T14:23:44;93.15;;;30.75;;
34828;SDS011;21042;47.620;12.188;2022-12-15T14:26:31;90.90;;;32.90;;
34828;SDS011;21042;47.620;12.188;2022-12-15T14:28:59;63.85;;;23.15;;
34828;SDS011;21042;47.620;12.188;2022-12-15T14:31:28;88.68;;;30.85;;
34828;SDS011;21042;47.620;12.188;2022-12-15T14:34:02;94.07;;;30.55;;
34828;SDS011;21042;47.620;12.188;2022-12-15T14:36:34;96.22;;;32.83;;
34828;SDS011;21042;47.620;12.188;2022-12-15T14:39:02;99.97;;;32.15;;
34828;SDS011;21042;47.620;12.188;2022-12-15T14:41:50;103.53;;;34.88;;
34828;SDS011;21042;47.620;12.188;2022-12-15T14:44:31;107.32;;;33.50;;
34828;SDS011;21042;47.620;12.188;2022-12-15T14:47:19;107.07;;;34.38;;
34828;SDS011;21042;47.620;12.188;2022-12-15T14:49:52;112.97;;;36.08;;
34828;SDS011;21042;47.620;12.188;2022-12-15T14:54:58;116.10;;;34.83;;
34828;SDS011;21042;47.620;12.188;2022-12-15T14:57:28;112.18;;;36.00;;
34828;SDS011;21042;47.620;12.188;2022-12-15T15:03:37;109.57;;;35.33;;
34828;SDS011;21042;47.620;12.188;2022-12-15T15:06:16;111.03;;;35.97;;
34828;SDS011;21042;47.620;12.188;2022-12-15T15:08:47;114.45;;;36.42;;
34828;SDS011;21042;47.620;12.188;2022-12-15T15:13:52;110.78;;;35.58;;
34828;SDS011;21042;47.620;12.188;2022-12-15T15:16:31;109.60;;;36.75;;
34828;SDS011;21042;47.620;12.188;2022-12-15T15:18:58;114.70;;;35.67;;
34828;SDS011;21042;47.620;12.188;2022-12-15T15:21:27;106.43;;;36.13;;
34828;SDS011;21042;47.620;12.188;2022-12-15T15:26:45;110.38;;;36.42;;
34828;SDS011;21042;47.620;12.188;2022-12-15T15:29:31;115.10;;;37.35;;
34828;SDS011;21042;47.620;12.188;2022-12-15T15:32:04;114.57;;;36.35;;
34828;SDS011;21042;47.620;12.188;2022-12-15T15:34:31;94.65;;;33.30;;
34828;SDS011;21042;47.620;12.188;2022-12-15T15:37:00;109.60;;;36.38;;
34828;SDS011;21042;47.620;12.188;2022-12-15T15:39:27;110.25;;;36.33;;
34828;SDS011;21042;47.620;12.188;2022-12-15T15:41:54;165.85;;;52.30;;
34828;SDS011;21042;47.620;12.188;2022-12-15T15:44:21;117.35;;;36.78;;
34828;SDS011;21042;47.620;12.188;2022-12-15T15:46:48;119.35;;;39.55;;
34828;SDS011;21042;47.620;12.188;2022-12-15T15:49:17;133.35;;;38.08;;
34828;SDS011;21042;47.620;12.188;2022-12-15T15:51:46;120.07;;;39.28;;
34828;SDS011;21042;47.620;12.188;2022-12-15T15:54:14;137.88;;;40.60;;
34828;SDS011;21042;47.620;12.188;2022-12-15T15:56:43;136.95;;;39.60;;
34828;SDS011;21042;47.620;12.188;2022-12-15T15:59:11;123.88;;;39.92;;
34828;SDS011;21042;47.620;12.188;2022-12-15T16:01:39;144.82;;;42.38;;
34828;SDS011;21042;47.620;12.188;2022-12-15T16:04:06;130.38;;;40.65;;
34828;SDS011;21042;47.620;12.188;2022-12-15T16:06:33;132.57;;;40.78;;
34828;SDS011;21042;47.620;12.188;2022-12-15T16:09:00;120.88;;;38.38;;
34828;SDS011;21042;47.620;12.188;2022-12-15T16:11:28;128.45;;;41.38;;
34828;SDS011;21042;47.620;12.188;2022-12-15T16:13:58;135.23;;;40.78;;
34828;SDS011;21042;47.620;12.188;2022-12-15T16:16:28;125.25;;;39.58;;
34828;SDS011;21042;47.620;12.188;2022-12-15T16:18:57;126.93;;;39.60;;
34828;SDS011;21042;47.620;12.188;2022-12-15T16:21:25;135.13;;;42.53;;
34828;SDS011;21042;47.620;12.188;2022-12-15T16:23:53;120.88;;;41.00;;
34828;SDS011;21042;47.620;12.188;2022-12-15T16:26:29;119.97;;;40.42;;
34828;SDS011;21042;47.620;12.188;2022-12-15T16:28:57;136.27;;;40.33;;
34828;SDS011;21042;47.620;12.188;2022-12-15T16:31:28;141.20;;;41.00;;
34828;SDS011;21042;47.620;12.188;2022-12-15T16:34:07;129.60;;;40.42;;
34828;SDS011;21042;47.620;12.188;2022-12-15T16:36:34;142.77;;;42.40;;
34828;SDS011;21042;47.620;12.188;2022-12-15T16:39:01;136.35;;;41.75;;
34828;SDS011;21042;47.620;12.188;2022-12-15T16:41:28;132.32;;;41.65;;
34828;SDS011;21042;47.620;12.188;2022-12-15T16:43:55;139.63;;;41.97;;
34828;SDS011;21042;47.620;12.188;2022-12-15T16:46:22;134.85;;;41.92;;
34828;SDS011;21042;47.620;12.188;2022-12-15T16:48:49;130.30;;;41.53;;
34828;SDS011;21042;47.620;12.188;2022-12-15T16:51:21;138.55;;;40.88;;
34828;SDS011;21042;47.620;12.188;2022-12-15T16:53:54;133.73;;;42.77;;
34828;SDS011;21042;47.620;12.188;2022-12-15T16:56:20;133.98;;;41.90;;
34828;SDS011;21042;47.620;12.188;2022-12-15T16:58:47;125.60;;;41.03;;
34828;SDS011;21042;47.620;12.188;2022-12-15T17:01:34;128.90;;;42.30;;
34828;SDS011;21042;47.620;12.188;2022-12-15T17:04:05;134.75;;;41.67;;
34828;SDS011;21042;47.620;12.188;2022-12-15T17:06:32;97.57;;;29.98;;
34828;SDS011;21042;47.620;12.188;2022-12-15T17:08:58;82.97;;;28.38;;